sensor_id;sensor_type;location;lat;lon;timestamp;pressure;altitude;pressure_sealevel;temperature;humidity
42691;BME280;28306;55.744;37.578;2023-02-23T00:02:10;99697.59;;;27.58;14.20
42691;BME280;28306;55.744;37.578;2023-02-23T00:04:36;99694.84;;;27.58;14.38
42691;BME280;28306;55.744;37.578;2023-02-23T00:07:02;99701.97;;;27.59;14.21
42691;BME280;28306;55.744;37.578;2023-02-23T00:09:28;99704.69;;;27.59;14.30
42691;BME280;28306;55.744;37.578;2023-02-23T00:11:59;99704.69;;;27.59;14.21
42691;BME280;28306;55.744;37.578;2023-02-23T00:14:32;99716.97;;;27.61;14.27
42691;BME280;28306;55.744;37.578;2023-02-23T00:16:57;99713.13;;;27.62;14.16
42691;BME280;28306;55.744;37.578;2023-02-23T00:19:24;99718.31;;;27.64;14.24
42691;BME280;28306;55.744;37.578;2023-02-23T00:21:49;99715.06;;;27.62;14.30
42691;BME280;28306;55.744;37.578;2023-02-23T00:24:15;99721.34;;;27.62;14.37
42691;BME280;28306;55.744;37.578;2023-02-23T00:26:43;99715.88;;;27.62;14.11
42691;BME280;28306;55.744;37.578;2023-02-23T00:29:11;99717.78;;;27.62;14.24
42691;BME280;28306;55.744;37.578;2023-02-23T00:31:37;99726.00;;;27.62;14.33
42691;BME280;28306;55.744;37.578;2023-02-23T00:34:04;99729.00;;;27.60;14.24
42691;BME280;28306;55.744;37.578;2023-02-23T00:36:30;99723.81;;;27.59;14.45
42691;BME280;28306;55.744;37.578;2023-02-23T00:38:58;99732.84;;;27.59;14.18
42691;BME280;28306;55.744;37.578;2023-02-23T00:41:27;99738.31;;;27.59;14.21
42691;BME280;28306;55.744;37.578;2023-02-23T00:43:54;99735.28;;;27.61;14.20
42691;BME280;28306;55.744;37.578;2023-02-23T00:46:21;99738.00;;;27.61;14.44
42691;BME280;28306;55.744;37.578;2023-02-23T00:48:49;99739.94;;;27.60;14.45
42691;BME280;28306;55.744;37.578;2023-02-23T00:51:17;99742.69;;;27.60;14.44
42691;BME280;28306;55.744;37.578;2023-02-23T00:53:43;99739.09;;;27.60;14.40
42691;BME280;28306;55.744;37.578;2023-02-23T00:56:09;99736.09;;;27.61;14.31
42691;BME280;28306;55.744;37.578;2023-02-23T00:58:35;99750.31;;;27.63;14.32
42691;BME280;28306;55.744;37.578;2023-02-23T01:01:04;99745.66;;;27.64;14.26
42691;BME280;28306;55.744;37.578;2023-02-23T01:03:30;99747.56;;;27.63;14.20
42691;BME280;28306;55.744;37.578;2023-02-23T01:05:59;99752.22;;;27.63;14.26
42691;BME280;28306;55.744;37.578;2023-02-23T01:08:25;99747.03;;;27.61;14.14
42691;BME280;28306;55.744;37.578;2023-02-23T01:10:52;99748.94;;;27.61;14.19
42691;BME280;28306;55.744;37.578;2023-02-23T01:13:18;99747.31;;;27.60;14.49
42691;BME280;28306;55.744;37.578;2023-02-23T01:15:44;99756.34;;;27.60;14.20
42691;BME280;28306;55.744;37.578;2023-02-23T01:18:12;99755.22;;;27.61;14.18
42691;BME280;28306;55.744;37.578;2023-02-23T01:20:38;99763.41;;;27.61;14.26
42691;BME280;28306;55.744;37.578;2023-02-23T01:23:06;99760.41;;;27.63;14.21
42691;BME280;28306;55.744;37.578;2023-02-23T01:25:32;99760.13;;;27.64;14.36
42691;BME280;28306;55.744;37.578;2023-02-23T01:27:58;99757.41;;;27.64;14.06
42691;BME280;28306;55.744;37.578;2023-02-23T01:30:24;99760.97;;;27.65;14.33
42691;BME280;28306;55.744;37.578;2023-02-23T01:32:49;99766.13;;;27.66;14.47
42691;BME280;28306;55.744;37.578;2023-02-23T01:35:18;99764.22;;;27.67;14.24
42691;BME280;28306;55.744;37.578;2023-02-23T01:37:43;99753.28;;;27.67;14.22
42691;BME280;28306;55.744;37.578;2023-02-23T01:40:13;99760.97;;;27.65;14.26
42691;BME280;28306;55.744;37.578;2023-02-23T01:42:40;99750.59;;;27.62;14.23
42691;BME280;28306;55.744;37.578;2023-02-23T01:45:17;99755.22;;;27.61;14.46
42691;BME280;28306;55.744;37.578;2023-02-23T01:47:43;99756.06;;;27.62;14.08
42691;BME280;28306;55.744;37.578;2023-02-23T01:50:09;99747.03;;;27.61;14.23
42691;BME280;28306;55.744;37.578;2023-02-23T01:52:36;99743.19;;;27.62;14.16
42691;BME280;28306;55.744;37.578;2023-02-23T01:55:02;99750.31;;;27.63;14.14
42691;BME280;28306;55.744;37.578;2023-02-23T01:57:29;99759.31;;;27.64;14.16
42691;BME280;28306;55.744;37.578;2023-02-23T01:59:56;99763.97;;;27.63;14.36
42691;BME280;28306;55.744;37.578;2023-02-23T02:02:23;99762.88;;;27.64;14.37
42691;BME280;28306;55.744;37.578;2023-02-23T02:04:57;99762.88;;;27.64;14.17
42691;BME280;28306;55.744;37.578;2023-02-23T02:07:27;99769.72;;;27.62;14.33
42691;BME280;28306;55.744;37.578;2023-02-23T02:09:56;99777.38;;;27.60;14.18
42691;BME280;28306;55.744;37.578;2023-02-23T02:12:47;99776.84;;;27.58;14.20
42691;BME280;28306;55.744;37.578;2023-02-23T02:15:17;99774.09;;;27.58;14.08
42691;BME280;28306;55.744;37.578;2023-02-23T02:31:13;99795.44;;;27.56;14.45
42691;BME280;28306;55.744;37.578;2023-02-23T02:44:26;99802.53;;;27.57;14.19
42691;BME280;28306;55.744;37.578;2023-02-23T02:46:47;99798.72;;;27.58;14.18
42691;BME280;28306;55.744;37.578;2023-02-23T02:49:23;99794.31;;;27.57;14.14
42691;BME280;28306;55.744;37.578;2023-02-23T02:54:52;99802.00;;;27.55;14.51
42691;BME280;28306;55.744;37.578;2023-02-23T02:57:21;99803.94;;;27.54;14.46
42691;BME280;28306;55.744;37.578;2023-02-23T02:59:48;99797.09;;;27.51;14.15
42691;BME280;28306;55.744;37.578;2023-02-23T03:02:34;99813.22;;;27.53;14.35
42691;BME280;28306;55.744;37.578;2023-02-23T03:05:21;99805.81;;;27.54;14.37
42691;BME280;28306;55.744;37.578;2023-02-23T03:11:01;99807.47;;;27.55;14.21
42691;BME280;28306;55.744;37.578;2023-02-23T03:14:05;99804.72;;;27.55;14.27
42691;BME280;28306;55.744;37.578;2023-02-23T03:25:53;99801.47;;;27.53;14.38
42691;BME280;28306;55.744;37.578;2023-02-23T03:28:47;99799.53;;;27.53;14.09
42691;BME280;28306;55.744;37.578;2023-02-23T03:37:27;99810.22;;;27.49;14.14
42691;BME280;28306;55.744;37.578;2023-02-23T03:40:22;99824.97;;;27.48;14.41
42691;BME280;28306;55.744;37.578;2023-02-23T03:43:10;99825.78;;;27.49;14.34
42691;BME280;28306;55.744;37.578;2023-02-23T03:45:55;99827.72;;;27.48;14.32
42691;BME280;28306;55.744;37.578;2023-02-23T03:48:41;99825.25;;;27.47;14.35
42691;BME280;28306;55.744;37.578;2023-02-23T03:51:26;99819.78;;;27.47;14.12
42691;BME280;28306;55.744;37.578;2023-02-23T03:54:34;99839.44;;;27.49;14.23
42691;BME280;28306;55.744;37.578;2023-02-23T03:57:17;99830.97;;;27.50;14.32
42691;BME280;28306;55.744;37.578;2023-02-23T04:00:04;99828.50;;;27.49;14.35
42691;BME280;28306;55.744;37.578;2023-02-23T04:02:51;99828.78;;;27.47;14.23
42691;BME280;28306;55.744;37.578;2023-02-23T04:05:38;99838.09;;;27.46;14.10
42691;BME280;28306;55.744;37.578;2023-02-23T04:08:24;99838.09;;;27.46;14.29
42691;BME280;28306;55.744;37.578;2023-02-23T04:13:53;99836.47;;;27.45;14.23
42691;BME280;28306;55.744;37.578;2023-02-23T04:16:22;99844.94;;;27.44;14.33
42691;BME280;28306;55.744;37.578;2023-02-23T04:18:48;99846.84;;;27.43;14.14
42691;BME280;28306;55.744;37.578;2023-02-23T04:21:13;99850.41;;;27.44;14.19
42691;BME280;28306;55.744;37.578;2023-02-23T04:23:39;99847.66;;;27.44;14.23
42691;BME280;28306;55.744;37.578;2023-02-23T04:26:06;99854.78;;;27.45;14.39
42691;BME280;28306;55.744;37.578;2023-02-23T04:28:31;99849.31;;;27.45;14.23
42691;BME280;28306;55.744;37.578;2023-02-23T04:30:57;99851.22;;;27.44;14.34
42691;BME280;28306;55.744;37.578;2023-02-23T04:33:22;99846.59;;;27.45;14.35
42691;BME280;28306;55.744;37.578;2023-02-23T04:35:51;99838.09;;;27.46;14.12
42691;BME280;28306;55.744;37.578;2023-02-23T04:38:16;99859.97;;;27.46;14.23
42691;BME280;28306;55.744;37.578;2023-02-23T04:40:42;99866.53;;;27.45;14.41
42691;BME280;28306;55.744;37.578;2023-02-23T04:43:08;99861.34;;;27.44;14.47
42691;BME280;28306;55.744;37.578;2023-02-23T04:45:33;99868.72;;;27.43;14.40
42691;BME280;28306;55.744;37.578;2023-02-23T04:47:59;99866.00;;;27.43;14.19
42691;BME280;28306;55.744;37.578;2023-02-23T04:50:24;99866.78;;;27.44;14.41
42691;BME280;28306;55.744;37.578;2023-02-23T04:52:50;99872.53;;;27.42;14.19
42691;BME280;28306;55.744;37.578;2023-02-23T04:55:21;99866.53;;;27.40;14.35
42691;BME280;28306;55.744;37.578;2023-02-23T04:57:47;99875.00;;;27.39;14.37
42691;BME280;28306;55.744;37.578;2023-02-23T05:00:13;99874.19;;;27.38;14.14
42691;BME280;28306;55.744;37.578;2023-02-23T05:02:38;99884.28;;;27.38;14.22
42691;BME280;28306;55.744;37.578;2023-02-23T05:05:04;99884.28;;;27.38;14.34
42691;BME280;28306;55.744;37.578;2023-02-23T05:07:31;99873.38;;;27.38;14.38
42691;BME280;28306;55.744;37.578;2023-02-23T05:09:56;99877.75;;;27.39;14.28
42691;BME280;28306;55.744;37.578;2023-02-23T05:12:22;99885.38;;;27.42;14.20
42691;BME280;28306;55.744;37.578;2023-02-23T05:14:47;99882.66;;;27.42;14.09
42691;BME280;28306;55.744;37.578;2023-02-23T05:17:12;99879.09;;;27.41;14.39
42691;BME280;28306;55.744;37.578;2023-02-23T05:19:38;99884.56;;;27.41;14.10
42691;BME280;28306;55.744;37.578;2023-02-23T05:22:03;99888.41;;;27.40;14.13
42691;BME280;28306;55.744;37.578;2023-02-23T05:24:29;99890.03;;;27.41;14.09
42691;BME280;28306;55.744;37.578;2023-02-23T05:26:54;99895.47;;;27.41;14.13
42691;BME280;28306;55.744;37.578;2023-02-23T05:29:20;99892.22;;;27.39;14.36
42691;BME280;28306;55.744;37.578;2023-02-23T05:31:45;99893.03;;;27.40;14.28
42691;BME280;28306;55.744;37.578;2023-02-23T05:34:12;99889.75;;;27.38;14.29
42691;BME280;28306;55.744;37.578;2023-02-23T05:36:38;99901.78;;;27.37;14.20
42691;BME280;28306;55.744;37.578;2023-02-23T05:39:05;99898.75;;;27.38;14.33
42691;BME280;28306;55.744;37.578;2023-02-23T05:41:30;99903.16;;;27.39;14.34
42691;BME280;28306;55.744;37.578;2023-02-23T05:43:56;99904.78;;;27.40;14.31
42691;BME280;28306;55.744;37.578;2023-02-23T05:46:23;99903.16;;;27.39;14.13
42691;BME280;28306;55.744;37.578;2023-02-23T05:48:49;99906.69;;;27.40;14.05
42691;BME280;28306;55.744;37.578;2023-02-23T05:51:15;99901.50;;;27.38;14.40
42691;BME280;28306;55.744;37.578;2023-02-23T05:53:41;99895.75;;;27.40;14.35
42691;BME280;28306;55.744;37.578;2023-02-23T05:56:09;99903.97;;;27.40;14.47
42691;BME280;28306;55.744;37.578;2023-02-23T05:58:36;99907.53;;;27.40;14.26
42691;BME280;28306;55.744;37.578;2023-02-23T06:01:01;99908.34;;;27.41;14.34
42691;BME280;28306;55.744;37.578;2023-02-23T06:03:27;99904.53;;;27.42;14.09
42691;BME280;28306;55.744;37.578;2023-02-23T06:05:53;99916.78;;;27.44;14.19
42691;BME280;28306;55.744;37.578;2023-02-23T06:08:19;99912.16;;;27.45;14.19
42691;BME280;28306;55.744;37.578;2023-02-23T06:10:45;99912.97;;;27.45;14.20
42691;BME280;28306;55.744;37.578;2023-02-23T06:13:10;99929.38;;;27.45;14.21
42691;BME280;28306;55.744;37.578;2023-02-23T06:15:36;99919.81;;;27.48;14.08
42691;BME280;28306;55.744;37.578;2023-02-23T06:18:03;99930.75;;;27.48;14.10
42691;BME280;28306;55.744;37.578;2023-02-23T06:20:28;99929.91;;;27.47;14.29
42691;BME280;28306;55.744;37.578;2023-02-23T06:22:53;99928.28;;;27.46;14.16
42691;BME280;28306;55.744;37.578;2023-02-23T06:25:19;99928.28;;;27.46;14.17
42691;BME280;28306;55.744;37.578;2023-02-23T06:27:45;99922.81;;;27.46;14.22
42691;BME280;28306;55.744;37.578;2023-02-23T06:30:11;99914.63;;;27.46;14.16
42691;BME280;28306;55.744;37.578;2023-02-23T06:32:36;99930.75;;;27.48;14.28
42691;BME280;28306;55.744;37.578;2023-02-23T06:35:03;99931.81;;;27.47;14.09
42691;BME280;28306;55.744;37.578;2023-02-23T06:37:30;99921.44;;;27.49;14.22
42691;BME280;28306;55.744;37.578;2023-02-23T06:39:55;99924.16;;;27.49;14.28
42691;BME280;28306;55.744;37.578;2023-02-23T06:42:21;99925.81;;;27.50;14.25
42691;BME280;28306;55.744;37.578;2023-02-23T06:44:46;99932.09;;;27.50;14.19
42691;BME280;28306;55.744;37.578;2023-02-23T06:47:12;99941.13;;;27.51;14.16
42691;BME280;28306;55.744;37.578;2023-02-23T06:49:37;99923.59;;;27.52;14.40
42691;BME280;28306;55.744;37.578;2023-02-23T06:52:07;99927.19;;;27.53;14.13
42691;BME280;28306;55.744;37.578;2023-02-23T06:54:32;99933.19;;;27.55;14.04
42691;BME280;28306;55.744;37.578;2023-02-23T06:57:02;99939.47;;;27.55;14.07
42691;BME280;28306;55.744;37.578;2023-02-23T06:59:28;99939.19;;;27.57;14.05
42691;BME280;28306;55.744;37.578;2023-02-23T07:01:54;99939.75;;;27.59;13.99
42691;BME280;28306;55.744;37.578;2023-02-23T07:04:20;99935.91;;;27.60;14.07
42691;BME280;28306;55.744;37.578;2023-02-23T07:06:45;99938.06;;;27.63;14.17
42691;BME280;28306;55.744;37.578;2023-02-23T07:09:11;99935.91;;;27.65;14.18
42691;BME280;28306;55.744;37.578;2023-02-23T07:11:36;99937.00;;;27.64;14.05
42691;BME280;28306;55.744;37.578;2023-02-23T07:14:02;99951.19;;;27.66;14.00
42691;BME280;28306;55.744;37.578;2023-02-23T07:16:27;99941.91;;;27.67;14.12
42691;BME280;28306;55.744;37.578;2023-02-23T07:18:53;99950.63;;;27.69;14.21
42691;BME280;28306;55.744;37.578;2023-02-23T07:21:19;99958.28;;;27.72;14.24
42691;BME280;28306;55.744;37.578;2023-02-23T07:23:45;99964.56;;;27.78;14.27
42691;BME280;28306;55.744;37.578;2023-02-23T07:26:17;99960.72;;;27.84;13.88
42691;BME280;28306;55.744;37.578;2023-02-23T07:28:42;99964.25;;;27.90;13.80
42691;BME280;28306;55.744;37.578;2023-02-23T07:31:08;99964.53;;;27.93;13.95
42691;BME280;28306;55.744;37.578;2023-02-23T07:33:33;99966.75;;;27.96;13.86
42691;BME280;28306;55.744;37.578;2023-02-23T07:35:59;99962.88;;;27.97;13.75
42691;BME280;28306;55.744;37.578;2023-02-23T07:38:25;99968.34;;;27.97;13.80
42691;BME280;28306;55.744;37.578;2023-02-23T07:40:50;99965.63;;;27.92;13.84
42691;BME280;28306;55.744;37.578;2023-02-23T07:43:16;99966.97;;;27.90;14.08
42691;BME280;28306;55.744;37.578;2023-02-23T07:45:41;99970.00;;;27.88;13.86
42691;BME280;28306;55.744;37.578;2023-02-23T07:48:07;99979.31;;;27.87;13.83
42691;BME280;28306;55.744;37.578;2023-02-23T07:50:33;99973.00;;;27.86;13.99
42691;BME280;28306;55.744;37.578;2023-02-23T07:52:58;99973.00;;;27.86;13.86
42691;BME280;28306;55.744;37.578;2023-02-23T07:55:24;99966.44;;;27.87;14.04
42691;BME280;28306;55.744;37.578;2023-02-23T07:57:49;99962.91;;;27.87;14.07
42691;BME280;28306;55.744;37.578;2023-02-23T08:00:15;99957.44;;;27.87;13.97
42691;BME280;28306;55.744;37.578;2023-02-23T08:02:41;99959.34;;;27.86;13.87
42691;BME280;28306;55.744;37.578;2023-02-23T08:05:06;99957.44;;;27.87;14.12
42691;BME280;28306;55.744;37.578;2023-02-23T08:07:32;99954.69;;;27.87;13.86
42691;BME280;28306;55.744;37.578;2023-02-23T08:09:58;99959.06;;;27.88;14.00
42691;BME280;28306;55.744;37.578;2023-02-23T08:12:23;99953.59;;;27.88;13.93
42691;BME280;28306;55.744;37.578;2023-02-23T08:14:49;99952.78;;;27.87;13.93
42691;BME280;28306;55.744;37.578;2023-02-23T08:17:14;99952.25;;;27.85;14.02
42691;BME280;28306;55.744;37.578;2023-02-23T08:19:40;99953.88;;;27.86;14.02
42691;BME280;28306;55.744;37.578;2023-02-23T08:22:05;99951.13;;;27.86;13.91
42691;BME280;28306;55.744;37.578;2023-02-23T08:24:31;99952.78;;;27.87;14.10
42691;BME280;28306;55.744;37.578;2023-02-23T08:26:57;99951.69;;;27.89;14.00
42691;BME280;28306;55.744;37.578;2023-02-23T08:29:22;99959.06;;;27.88;13.99
42691;BME280;28306;55.744;37.578;2023-02-23T08:31:48;99953.03;;;27.91;14.02
42691;BME280;28306;55.744;37.578;2023-02-23T08:34:15;99953.88;;;27.92;14.02
42691;BME280;28306;55.744;37.578;2023-02-23T08:36:41;99953.88;;;27.92;14.05
42691;BME280;28306;55.744;37.578;2023-02-23T08:39:08;99951.13;;;27.92;13.98
42691;BME280;28306;55.744;37.578;2023-02-23T08:41:34;99961.78;;;27.93;13.99
42691;BME280;28306;55.744;37.578;2023-02-23T08:43:59;99949.75;;;27.94;13.92
42691;BME280;28306;55.744;37.578;2023-02-23T08:46:25;99960.44;;;27.96;14.07
42691;BME280;28306;55.744;37.578;2023-02-23T08:48:50;99957.94;;;27.94;13.95
42691;BME280;28306;55.744;37.578;2023-02-23T08:51:16;99965.34;;;27.94;13.82
42691;BME280;28306;55.744;37.578;2023-02-23T08:53:42;99965.91;;;27.96;14.00
42691;BME280;28306;55.744;37.578;2023-02-23T08:56:07;99972.22;;;27.96;13.94
42691;BME280;28306;55.744;37.578;2023-02-23T08:58:33;99964.00;;;27.96;13.98
42691;BME280;28306;55.744;37.578;2023-02-23T09:00:59;99968.34;;;27.97;14.12
42691;BME280;28306;55.744;37.578;2023-02-23T09:03:25;99961.53;;;28.00;13.93
42691;BME280;28306;55.744;37.578;2023-02-23T09:05:53;99957.66;;;28.01;13.90
42691;BME280;28306;55.744;37.578;2023-02-23T09:08:18;99953.56;;;28.03;13.97
42691;BME280;28306;55.744;37.578;2023-02-23T09:10:44;99950.03;;;28.03;13.88
42691;BME280;28306;55.744;37.578;2023-02-23T09:13:10;99946.19;;;28.04;13.78
42691;BME280;28306;55.744;37.578;2023-02-23T09:15:36;99964.22;;;28.05;13.99
42691;BME280;28306;55.744;37.578;2023-02-23T09:18:02;99948.63;;;28.05;14.03
42691;BME280;28306;55.744;37.578;2023-02-23T09:20:28;99943.44;;;28.04;13.84
42691;BME280;28306;55.744;37.578;2023-02-23T09:22:53;99947.81;;;28.05;13.92
42691;BME280;28306;55.744;37.578;2023-02-23T09:25:19;99945.09;;;28.05;13.85
42691;BME280;28306;55.744;37.578;2023-02-23T09:27:53;99946.19;;;28.04;14.00
42691;BME280;28306;55.744;37.578;2023-02-23T09:30:21;99951.66;;;28.04;14.09
42691;BME280;28306;55.744;37.578;2023-02-23T09:32:47;99945.09;;;28.05;14.25
42691;BME280;28306;55.744;37.578;2023-02-23T09:35:13;99944.00;;;28.06;14.24
42691;BME280;28306;55.744;37.578;2023-02-23T09:37:49;99941.78;;;28.08;14.12
42691;BME280;28306;55.744;37.578;2023-02-23T09:40:19;99940.44;;;28.11;13.98
42691;BME280;28306;55.744;37.578;2023-02-23T09:42:52;99940.44;;;28.11;14.22
42691;BME280;28306;55.744;37.578;2023-02-23T09:50:31;99944.50;;;28.13;14.11
42691;BME280;28306;55.744;37.578;2023-02-23T09:53:02;99942.88;;;28.12;14.42
42691;BME280;28306;55.744;37.578;2023-02-23T09:55:29;99935.47;;;28.13;13.47
42691;BME280;28306;55.744;37.578;2023-02-23T09:57:55;99938.78;;;28.10;13.84
42691;BME280;28306;55.744;37.578;2023-02-23T10:00:22;99931.66;;;28.09;14.41
42691;BME280;28306;55.744;37.578;2023-02-23T10:05:29;99924.00;;;28.11;14.71
42691;BME280;28306;55.744;37.578;2023-02-23T10:08:41;99922.88;;;28.12;14.29
42691;BME280;28306;55.744;37.578;2023-02-23T10:10:55;99916.34;;;28.13;14.54
42691;BME280;28306;55.744;37.578;2023-02-23T10:15:54;99919.88;;;28.13;14.58
42691;BME280;28306;55.744;37.578;2023-02-23T10:23:22;99915.50;;;28.17;14.71
42691;BME280;28306;55.744;37.578;2023-02-23T10:25:50;99920.69;;;28.19;14.72
42691;BME280;28306;55.744;37.578;2023-02-23T10:28:19;99917.66;;;28.20;14.78
42691;BME280;28306;55.744;37.578;2023-02-23T10:30:46;99918.19;;;28.22;14.59
42691;BME280;28306;55.744;37.578;2023-02-23T10:33:13;99922.56;;;28.23;14.72
42691;BME280;28306;55.744;37.578;2023-02-23T10:35:41;99918.75;;;28.25;14.91
42691;BME280;28306;55.744;37.578;2023-02-23T10:38:07;99914.38;;;28.23;14.76
42691;BME280;28306;55.744;37.578;2023-02-23T10:40:38;99922.56;;;28.23;14.86
42691;BME280;28306;55.744;37.578;2023-02-23T10:43:04;99919.56;;;28.25;14.66
42691;BME280;28306;55.744;37.578;2023-02-23T10:45:29;99914.09;;;28.25;14.65
42691;BME280;28306;55.744;37.578;2023-02-23T10:48:06;99911.06;;;28.27;14.78
42691;BME280;28306;55.744;37.578;2023-02-23T10:50:32;99918.19;;;28.28;14.82
42691;BME280;28306;55.744;37.578;2023-02-23T10:53:17;99918.19;;;28.28;15.02
42691;BME280;28306;55.744;37.578;2023-02-23T10:55:43;99918.19;;;28.28;15.22
42691;BME280;28306;55.744;37.578;2023-02-23T10:58:16;99917.91;;;28.29;14.57
42691;BME280;28306;55.744;37.578;2023-02-23T11:00:59;99917.34;;;28.27;14.91
42691;BME280;28306;55.744;37.578;2023-02-23T11:03:31;99913.25;;;28.30;14.69
42691;BME280;28306;55.744;37.578;2023-02-23T11:05:57;99904.75;;;28.31;14.82
42691;BME280;28306;55.744;37.578;2023-02-23T11:11:04;99909.66;;;28.34;14.96
42691;BME280;28306;55.744;37.578;2023-02-23T11:13:37;99910.47;;;28.35;14.94
42691;BME280;28306;55.744;37.578;2023-02-23T11:18:29;99909.38;;;28.36;14.81
42691;BME280;28306;55.744;37.578;2023-02-23T11:20:54;99897.31;;;28.37;14.62
42691;BME280;28306;55.744;37.578;2023-02-23T11:23:22;99897.03;;;28.38;14.67
42691;BME280;28306;55.744;37.578;2023-02-23T11:25:50;99897.59;;;28.40;14.74
42691;BME280;28306;55.744;37.578;2023-02-23T11:28:17;99899.47;;;28.40;14.70
42691;BME280;28306;55.744;37.578;2023-02-23T11:30:47;99911.28;;;28.40;14.90
42691;BME280;28306;55.744;37.578;2023-02-23T11:33:14;99908.53;;;28.40;14.94
42691;BME280;28306;55.744;37.578;2023-02-23T11:35:41;99912.06;;;28.41;15.26
42691;BME280;28306;55.744;37.578;2023-02-23T11:38:13;99908.53;;;28.40;15.22
42691;BME280;28306;55.744;37.578;2023-02-23T11:40:39;99911.00;;;28.42;15.32
42691;BME280;28306;55.744;37.578;2023-02-23T11:43:06;99913.44;;;28.44;15.25
42691;BME280;28306;55.744;37.578;2023-02-23T11:45:36;99908.78;;;28.44;15.19
42691;BME280;28306;55.744;37.578;2023-02-23T11:48:02;99898.41;;;28.41;15.45
42691;BME280;28306;55.744;37.578;2023-02-23T11:50:33;99902.22;;;28.40;15.51
42691;BME280;28306;55.744;37.578;2023-02-23T11:53:03;99903.34;;;28.39;15.43
42691;BME280;28306;55.744;37.578;2023-02-23T11:55:30;99896.22;;;28.38;15.63
42691;BME280;28306;55.744;37.578;2023-02-23T11:58:19;99894.56;;;28.37;15.43
42691;BME280;28306;55.744;37.578;2023-02-23T12:00:59;99895.94;;;28.39;15.18
42691;BME280;28306;55.744;37.578;2023-02-23T12:03:26;99894.84;;;28.40;15.28
42691;BME280;28306;55.744;37.578;2023-02-23T12:05:54;99891.81;;;28.42;15.04
42691;BME280;28306;55.744;37.578;2023-02-23T12:08:43;99888.81;;;28.44;14.93
42691;BME280;28306;55.744;37.578;2023-02-23T12:11:10;99888.81;;;28.44;15.23
42691;BME280;28306;55.744;37.578;2023-02-23T12:13:58;99890.44;;;28.45;15.13
42691;BME280;28306;55.744;37.578;2023-02-23T12:16:27;99887.41;;;28.46;14.93
42691;BME280;28306;55.744;37.578;2023-02-23T12:21:23;99881.94;;;28.46;15.20
42691;BME280;28306;55.744;37.578;2023-02-23T12:24:04;99887.13;;;28.48;15.19
42691;BME280;28306;55.744;37.578;2023-02-23T12:26:36;99887.97;;;28.48;15.13
42691;BME280;28306;55.744;37.578;2023-02-23T12:29:15;99892.88;;;28.46;15.06
42691;BME280;28306;55.744;37.578;2023-02-23T12:34:29;99894.53;;;28.47;15.04
42691;BME280;28306;55.744;37.578;2023-02-23T12:36:57;99890.16;;;28.46;14.99
42691;BME280;28306;55.744;37.578;2023-02-23T12:39:27;99901.94;;;28.47;15.13
42691;BME280;28306;55.744;37.578;2023-02-23T12:49:48;99897.78;;;28.49;15.62
42691;BME280;28306;55.744;37.578;2023-02-23T12:52:21;99910.09;;;28.52;15.41
42691;BME280;28306;55.744;37.578;2023-02-23T12:54:50;99909.28;;;28.51;15.96
42691;BME280;28306;55.744;37.578;2023-02-23T13:12:42;99904.94;;;28.45;15.75
42691;BME280;28306;55.744;37.578;2023-02-23T13:20:28;99897.78;;;28.49;15.57
42691;BME280;28306;55.744;37.578;2023-02-23T13:25:28;99898.63;;;28.50;15.18
42691;BME280;28306;55.744;37.578;2023-02-23T13:27:58;99897.94;;;28.23;11.00
42691;BME280;28306;55.744;37.578;2023-02-23T13:30:24;99903.94;;;27.50;15.27
42691;BME280;28306;55.744;37.578;2023-02-23T13:32:50;99908.06;;;27.42;15.72
42691;BME280;28306;55.744;37.578;2023-02-23T13:35:17;99912.69;;;27.52;15.55
42691;BME280;28306;55.744;37.578;2023-02-23T13:45:30;99902.44;;;27.94;15.13
42691;BME280;28306;55.744;37.578;2023-02-23T13:48:43;99902.16;;;28.00;14.94
42691;BME280;28306;55.744;37.578;2023-02-23T13:50:59;99905.72;;;28.06;14.79
42691;BME280;28306;55.744;37.578;2023-02-23T13:53:41;99904.03;;;28.10;14.85
42691;BME280;28306;55.744;37.578;2023-02-23T13:56:07;99903.75;;;28.12;15.00
42691;BME280;28306;55.744;37.578;2023-02-23T13:58:33;99902.38;;;28.14;14.97
42691;BME280;28306;55.744;37.578;2023-02-23T14:03:28;99898.56;;;28.15;14.58
42691;BME280;28306;55.744;37.578;2023-02-23T14:05:56;99904.84;;;28.16;14.80
42691;BME280;28306;55.744;37.578;2023-02-23T14:08:30;99900.16;;;28.16;14.52
42691;BME280;28306;55.744;37.578;2023-02-23T14:10:56;99905.06;;;28.19;14.77
42691;BME280;28306;55.744;37.578;2023-02-23T14:13:26;99900.44;;;28.20;14.47
42691;BME280;28306;55.744;37.578;2023-02-23T14:18:33;99900.44;;;28.20;14.43
42691;BME280;28306;55.744;37.578;2023-02-23T14:23:28;99895.25;;;28.18;14.49
42691;BME280;28306;55.744;37.578;2023-02-23T14:28:39;99894.97;;;28.20;14.55
42691;BME280;28306;55.744;37.578;2023-02-23T14:38:49;99883.19;;;28.19;14.34
42691;BME280;28306;55.744;37.578;2023-02-23T14:41:23;99878.00;;;28.18;14.67
42691;BME280;28306;55.744;37.578;2023-02-23T14:44:33;99879.13;;;28.17;14.60
42691;BME280;28306;55.744;37.578;2023-02-23T14:46:38;99876.66;;;28.15;14.80
42691;BME280;28306;55.744;37.578;2023-02-23T14:49:18;99873.94;;;28.15;14.63
42691;BME280;28306;55.744;37.578;2023-02-23T14:51:50;99867.91;;;28.13;14.79
42691;BME280;28306;55.744;37.578;2023-02-23T14:54:30;99848.56;;;27.99;14.77
42691;BME280;28306;55.744;37.578;2023-02-23T14:56:57;99878.31;;;28.11;14.93
42691;BME280;28306;55.744;37.578;2023-02-23T14:59:24;99868.47;;;28.10;14.87
42691;BME280;28306;55.744;37.578;2023-02-23T15:01:52;99864.13;;;28.09;14.88
42691;BME280;28306;55.744;37.578;2023-02-23T15:04:19;99866.28;;;28.07;14.86
42691;BME280;28306;55.744;37.578;2023-02-23T15:06:45;99875.63;;;28.06;15.04
42691;BME280;28306;55.744;37.578;2023-02-23T15:09:44;99874.78;;;28.05;15.05
42691;BME280;28306;55.744;37.578;2023-02-23T15:12:19;99863.03;;;28.05;15.05